< < Back
Terminal Aerodrome Forecast


Current Version              Previous Versions:   1  2  3  4  5  6  7  8  9  

Terminal Aerodrome Forecast

335
FTUS44 KBMX 260500
TAFMGM
TAF
KMGM 260520Z 2606/2706 32007KT P6SM BKN050 OVC100
     FM261200 30005KT P6SM SCT150
     FM261700 28010KT P6SM SKC
     FM262200 22008KT P6SM SCT150=

Latest METAR

205
SAUS80 KWBC 261800 RRC
MTRMGM
METAR KMGM 261753Z VRB06KT 10SM CLR 14/M03 A3019 RMK AO2 SLP222
T01391033 10139 20028 58010


USA.gov is the U.S. government's official web portal to all federal, state and local government web resources and services.